createdAt,value
2022-07-25T00:02:02.396Z,99122.44
2022-07-25T00:04:30.398Z,99123.19
2022-07-25T00:06:58.224Z,99120.97
2022-07-25T00:09:25.988Z,99118.88
2022-07-25T00:11:53.734Z,99105.25
2022-07-25T00:14:21.483Z,99113.88
2022-07-25T00:16:50.626Z,99113.59
2022-07-25T00:19:18.498Z,99105.50
2022-07-25T00:21:46.527Z,99112.44
2022-07-25T00:24:14.263Z,99121.22
2022-07-25T00:26:42.000Z,99123.41
2022-07-25T00:29:11.274Z,99126.94
2022-07-25T00:31:39.033Z,99121.59
2022-07-25T00:34:08.672Z,99116.91
2022-07-25T00:36:36.988Z,99117.50
2022-07-25T00:39:04.958Z,99113.78
2022-07-25T00:41:32.851Z,99108.66
2022-07-25T00:44:00.643Z,99115.75
2022-07-25T00:46:28.396Z,99113.22
2022-07-25T00:48:56.276Z,99106.91
2022-07-25T00:51:26.307Z,99110.56
2022-07-25T00:53:54.059Z,99111.00
2022-07-25T00:56:21.764Z,99106.66
2022-07-25T00:58:49.632Z,99110.44
2022-07-25T01:01:17.547Z,99114.78
2022-07-25T01:03:45.347Z,99101.75
2022-07-25T01:06:13.242Z,99109.81
2022-07-25T01:08:42.902Z,99109.44
2022-07-25T01:11:11.695Z,99106.81
2022-07-25T01:13:39.580Z,99108.97
2022-07-25T01:16:07.671Z,99111.63
2022-07-25T01:18:35.611Z,99107.84
2022-07-25T01:21:05.130Z,99104.91
2022-07-25T01:23:32.986Z,99107.03
2022-07-25T01:26:00.874Z,99097.06
2022-07-25T01:28:29.104Z,99098.16
2022-07-25T01:30:56.853Z,99100.78
2022-07-25T01:33:24.622Z,99108.25
2022-07-25T01:35:52.697Z,99105.28
2022-07-25T01:38:22.035Z,99106.22
2022-07-25T01:40:49.888Z,99101.28
2022-07-25T01:43:17.704Z,99099.16
2022-07-25T01:45:45.411Z,99097.34
2022-07-25T01:48:13.407Z,99095.38
2022-07-25T01:50:41.173Z,99095.75
2022-07-25T01:53:08.897Z,99080.25
2022-07-25T01:55:38.040Z,99094.47
2022-07-25T01:58:06.368Z,99087.28
2022-07-25T02:00:35.667Z,99088.56
2022-07-25T02:03:21.306Z,99083.34
2022-07-25T02:05:49.045Z,99082.38
2022-07-25T02:08:16.895Z,99080.13
2022-07-25T02:10:46.347Z,99077.66
2022-07-25T02:13:14.144Z,99067.88
2022-07-25T02:15:41.904Z,99071.28
2022-07-25T02:18:09.763Z,99079.09
2022-07-25T02:20:37.528Z,99078.59
2022-07-25T02:23:05.938Z,99081.31
2022-07-25T02:25:34.199Z,99075.97
2022-07-25T02:28:03.251Z,99076.47
2022-07-25T02:30:31.088Z,99078.97
2022-07-25T02:32:58.966Z,99075.81
2022-07-25T02:35:26.924Z,99081.19
2022-07-25T02:37:54.633Z,99084.09
2022-07-25T02:40:22.884Z,99084.47
2022-07-25T02:42:50.592Z,99085.84
2022-07-25T02:45:19.880Z,99081.16
2022-07-25T02:47:47.712Z,99072.81
2022-07-25T02:50:15.473Z,99079.69
2022-07-25T02:52:43.318Z,99079.81
2022-07-25T02:55:11.761Z,99068.50
2022-07-25T02:57:39.489Z,99072.75
2022-07-25T03:00:08.654Z,99076.69
2022-07-25T03:02:37.874Z,99080.41
2022-07-25T03:05:42.900Z,99079.81
2022-07-25T03:08:10.831Z,99072.97
2022-07-25T03:10:38.511Z,99081.75
2022-07-25T03:13:06.274Z,99088.63
2022-07-25T03:15:34.131Z,99095.34
2022-07-25T03:18:03.188Z,99092.56
2022-07-25T03:20:30.877Z,99082.25
2022-07-25T03:22:58.696Z,99090.09
2022-07-25T03:25:26.487Z,99076.41
2022-07-25T03:27:54.208Z,99086.19
2022-07-25T03:30:22.189Z,99075.06
2022-07-25T03:32:50.183Z,99072.47
2022-07-25T03:35:19.190Z,99063.81
2022-07-25T03:37:47.077Z,99066.25
2022-07-25T03:40:15.929Z,99060.88
2022-07-25T03:42:44.048Z,99067.19
2022-07-25T03:45:12.262Z,99068.66
2022-07-25T03:47:39.981Z,99066.03
2022-07-25T03:50:08.216Z,99072.41
2022-07-25T03:52:38.461Z,99060.97
2022-07-25T03:55:07.448Z,99060.13
2022-07-25T03:57:35.113Z,99067.41
2022-07-25T04:00:04.317Z,99062.63
2022-07-25T04:02:32.109Z,99059.16
2022-07-25T04:05:00.095Z,99052.75
2022-07-25T04:07:28.109Z,99053.25
2022-07-25T04:09:57.181Z,99053.94
2022-07-25T04:12:25.037Z,99061.75
2022-07-25T04:14:52.836Z,99057.28
2022-07-25T04:17:20.693Z,99053.84
2022-07-25T04:19:49.391Z,99060.75
2022-07-25T04:22:17.075Z,99065.13
2022-07-25T04:24:45.155Z,99065.53
2022-07-25T04:27:14.336Z,99060.13
2022-07-25T04:29:42.055Z,99058.00
2022-07-25T04:32:09.818Z,99056.91
2022-07-25T04:34:37.695Z,99060.41
2022-07-25T04:37:05.412Z,99072.28
2022-07-25T04:39:33.111Z,99057.94
2022-07-25T04:42:01.451Z,99057.28
2022-07-25T04:44:30.525Z,99055.28
2022-07-25T04:46:58.241Z,99058.47
2022-07-25T04:49:25.921Z,99053.22
2022-07-25T04:51:53.633Z,99049.31
2022-07-25T04:54:21.390Z,99058.59
2022-07-25T04:56:49.160Z,99049.44
2022-07-25T04:59:17.736Z,99056.13
2022-07-25T05:01:46.957Z,99051.72
2022-07-25T05:04:14.807Z,99057.13
2022-07-25T05:06:42.537Z,99054.75
2022-07-25T05:09:10.602Z,99060.28
2022-07-25T05:11:39.723Z,99066.31
2022-07-25T05:14:09.510Z,99063.13
2022-07-25T05:16:37.561Z,99064.31
2022-07-25T05:19:06.701Z,99071.56
2022-07-25T05:21:34.503Z,99062.28
2022-07-25T05:24:02.182Z,99076.28
2022-07-25T05:26:29.958Z,99067.78
2022-07-25T05:28:58.425Z,99062.13
2022-07-25T05:31:26.188Z,99052.84
2022-07-25T05:33:53.921Z,99060.72
2022-07-25T05:36:22.967Z,99057.13
2022-07-25T05:38:50.697Z,99051.38
2022-07-25T05:41:18.441Z,99058.75
2022-07-25T05:43:47.693Z,99054.03
2022-07-25T05:46:16.613Z,99053.09
2022-07-25T05:48:44.669Z,99051.41
2022-07-25T05:51:13.024Z,99050.38
2022-07-25T05:53:42.104Z,99053.41
2022-07-25T05:56:10.715Z,99049.81
2022-07-25T05:58:40.501Z,99043.97
2022-07-25T06:01:08.722Z,99039.41
2022-07-25T06:03:36.470Z,99040.78
2022-07-25T06:06:04.272Z,99048.28
2022-07-25T06:08:31.986Z,99041.03
2022-07-25T06:11:04.040Z,99040.38
2022-07-25T06:13:32.910Z,99032.91
2022-07-25T06:16:02.701Z,99036.13
2022-07-25T06:18:30.535Z,99029.97
2022-07-25T06:20:58.560Z,99025.38
2022-07-25T06:23:27.714Z,99030.13
2022-07-25T06:25:55.669Z,99023.50
2022-07-25T06:28:24.910Z,99033.91
2022-07-25T06:30:52.717Z,99032.28
2022-07-25T06:33:20.432Z,99020.06
2022-07-25T06:35:48.256Z,99018.69
2022-07-25T06:38:16.016Z,99015.56
2022-07-25T06:40:43.957Z,99016.16
2022-07-25T06:43:11.697Z,99019.09
2022-07-25T06:45:42.963Z,99012.53
2022-07-25T06:48:10.660Z,99013.44
2022-07-25T06:50:38.646Z,99008.31
2022-07-25T06:53:07.054Z,99002.72
2022-07-25T06:55:39.350Z,99000.91
2022-07-25T06:58:07.250Z,98998.88
2022-07-25T07:00:35.041Z,99002.25
2022-07-25T07:03:04.211Z,98990.63
2022-07-25T07:05:35.281Z,98999.53
2022-07-25T07:08:03.646Z,98990.78
2022-07-25T07:10:31.895Z,99003.41
2022-07-25T07:13:08.112Z,99000.75
2022-07-25T07:15:36.462Z,99001.53
2022-07-25T07:18:07.977Z,98988.97
2022-07-25T07:20:36.164Z,98988.88
2022-07-25T07:23:04.074Z,98984.84
2022-07-25T07:25:33.780Z,98993.84
2022-07-25T07:28:01.912Z,98989.00
2022-07-25T07:30:58.676Z,98985.25
2022-07-25T07:33:19.459Z,98992.56
2022-07-25T07:35:47.457Z,98997.47
2022-07-25T07:38:15.327Z,98990.94
2022-07-25T07:40:44.294Z,98983.69
2022-07-25T07:43:12.379Z,98986.19
2022-07-25T07:45:40.281Z,98972.28
2022-07-25T07:48:08.513Z,98985.69
2022-07-25T07:50:38.019Z,98983.28
2022-07-25T07:53:06.869Z,98975.66
2022-07-25T07:55:46.491Z,98977.00
2022-07-25T07:58:17.644Z,98984.66
2022-07-25T08:00:46.689Z,98975.25
2022-07-25T08:03:14.966Z,98974.47
2022-07-25T08:05:45.903Z,98973.81
2022-07-25T08:08:15.166Z,98962.56
2022-07-25T08:10:44.923Z,98965.09
2022-07-25T08:13:16.773Z,98960.72
2022-07-25T08:15:45.858Z,98959.50
2022-07-25T08:18:17.186Z,98947.72
2022-07-25T08:20:47.462Z,98949.31
2022-07-25T08:23:15.623Z,98955.81
2022-07-25T08:25:43.924Z,98951.31
2022-07-25T08:28:11.937Z,98948.16
2022-07-25T08:30:40.661Z,98952.28
2022-07-25T08:33:10.930Z,98953.97
2022-07-25T08:35:40.214Z,98959.66
2022-07-25T08:38:11.550Z,98959.25
2022-07-25T08:40:39.386Z,98964.91
2022-07-25T08:43:07.541Z,98957.22
2022-07-25T08:45:35.247Z,98958.00
2022-07-25T08:48:02.973Z,98952.38
2022-07-25T08:50:30.896Z,98957.25
2022-07-25T08:53:30.288Z,98954.03
2022-07-25T08:55:48.079Z,98956.84
2022-07-25T08:58:17.422Z,98955.63
2022-07-25T09:00:45.336Z,98948.38
2022-07-25T09:03:13.522Z,98941.13
2022-07-25T09:05:41.758Z,98943.50
2022-07-25T09:08:11.051Z,98937.44
2022-07-25T09:10:39.824Z,98936.22
2022-07-25T09:13:14.037Z,98939.91
2022-07-25T09:15:45.176Z,98942.28
2022-07-25T09:18:16.872Z,98940.22
2022-07-25T09:20:46.598Z,98936.19
2022-07-25T09:23:15.704Z,98931.31
2022-07-25T09:25:43.997Z,98926.44
2022-07-25T09:28:14.922Z,98916.75
2022-07-25T09:30:55.453Z,98916.75
2022-07-25T09:33:23.735Z,98929.38
2022-07-25T09:35:51.650Z,98925.72
2022-07-25T09:38:20.024Z,98928.03
2022-07-25T09:40:55.620Z,98926.44
2022-07-25T09:43:25.408Z,98921.09
2022-07-25T09:45:53.485Z,98924.69
2022-07-25T09:48:21.498Z,98921.53
2022-07-25T09:50:49.388Z,98918.75
2022-07-25T09:53:17.108Z,98912.56
2022-07-25T09:55:44.977Z,98914.78
2022-07-25T09:58:13.940Z,98910.34
2022-07-25T10:00:43.681Z,98913.53
2022-07-25T10:03:20.260Z,98904.69
2022-07-25T10:06:00.804Z,98903.94
2022-07-25T10:08:28.861Z,98903.13
2022-07-25T10:10:56.676Z,98881.56
2022-07-25T10:13:31.537Z,98892.97
2022-07-25T10:16:00.644Z,98875.34
2022-07-25T10:18:29.728Z,98873.50
2022-07-25T10:21:24.889Z,98872.94
2022-07-25T10:24:02.670Z,98876.00
2022-07-25T10:26:30.882Z,98876.66
2022-07-25T10:28:59.508Z,98880.72
2022-07-25T10:31:37.084Z,98882.66
2022-07-25T10:34:06.720Z,98881.88
2022-07-25T10:36:46.464Z,98885.00
2022-07-25T10:39:16.800Z,98877.97
2022-07-25T10:41:46.307Z,98875.88
2022-07-25T10:44:15.816Z,98872.41
2022-07-25T10:46:46.133Z,98863.38
2022-07-25T10:49:19.897Z,98855.88
2022-07-25T10:51:56.133Z,98856.25
2022-07-25T10:54:24.342Z,98849.97
2022-07-25T10:56:54.584Z,98843.84
2022-07-25T10:59:34.443Z,98846.63
2022-07-25T11:02:05.220Z,98851.56
2022-07-25T11:04:33.095Z,98844.03
2022-07-25T11:07:09.559Z,98839.16
2022-07-25T11:09:37.431Z,98834.72
2022-07-25T11:12:06.090Z,98829.91
2022-07-25T11:14:37.507Z,98842.50
2022-07-25T11:17:15.586Z,98833.16
2022-07-25T11:19:44.371Z,98829.44
2022-07-25T11:22:12.433Z,98819.88
2022-07-25T11:24:42.040Z,98813.78
2022-07-25T11:27:12.255Z,98811.06
2022-07-25T11:29:41.117Z,98819.13
2022-07-25T11:32:10.418Z,98811.88
2022-07-25T11:34:41.674Z,98815.22
2022-07-25T11:37:10.072Z,98814.22
2022-07-25T11:39:41.040Z,98806.00
2022-07-25T11:42:11.199Z,98797.59
2022-07-25T11:44:45.641Z,98795.97
2022-07-25T11:47:24.843Z,98800.06
2022-07-25T11:49:55.210Z,98806.84
2022-07-25T11:52:24.415Z,98795.56
2022-07-25T11:54:56.664Z,98783.41
2022-07-25T11:57:25.601Z,98785.84
2022-07-25T11:59:53.663Z,98771.94
2022-07-25T12:02:25.737Z,98771.94
2022-07-25T12:04:59.729Z,98772.66
2022-07-25T12:07:41.623Z,98765.22
2022-07-25T12:10:11.099Z,98772.97
2022-07-25T12:12:51.356Z,98766.09
2022-07-25T12:15:21.286Z,98760.88
2022-07-25T12:17:49.432Z,98755.00
2022-07-25T12:20:20.058Z,98752.22
2022-07-25T12:22:48.680Z,98759.09
2022-07-25T12:25:16.621Z,98746.63
2022-07-25T12:27:44.508Z,98749.06
2022-07-25T12:30:13.463Z,98752.66
2022-07-25T12:32:41.845Z,98742.88
2022-07-25T12:35:11.066Z,98750.38
2022-07-25T12:37:41.481Z,98748.06
2022-07-25T12:40:10.709Z,98734.16
2022-07-25T12:42:38.480Z,98739.41
2022-07-25T12:45:14.763Z,98736.03
2022-07-25T12:47:43.844Z,98733.53
2022-07-25T12:50:11.633Z,98727.47
2022-07-25T12:52:41.444Z,98728.81
2022-07-25T12:55:11.350Z,98736.88
2022-07-25T12:57:39.627Z,98730.06
2022-07-25T13:00:10.149Z,98727.84
2022-07-25T13:02:38.219Z,98724.16
2022-07-25T13:05:08.196Z,98720.47
2022-07-25T13:07:36.071Z,98723.66
2022-07-25T13:10:06.355Z,98721.13
2022-07-25T13:12:34.140Z,98717.94
2022-07-25T13:15:02.425Z,98710.72
2022-07-25T13:17:30.191Z,98709.72
2022-07-25T13:19:57.973Z,98703.16
2022-07-25T13:22:26.402Z,98698.13
2022-07-25T13:24:54.883Z,98702.41
2022-07-25T13:27:24.237Z,98703.00
2022-07-25T13:29:55.952Z,98703.00
2022-07-25T13:32:24.044Z,98695.16
2022-07-25T13:34:51.783Z,98693.16
2022-07-25T13:37:19.676Z,98686.13
2022-07-25T13:39:47.413Z,98681.56
2022-07-25T13:42:15.170Z,98688.03
2022-07-25T13:44:44.292Z,98690.59
2022-07-25T13:47:12.227Z,98689.00
2022-07-25T13:49:40.739Z,98678.47
2022-07-25T13:52:08.534Z,98684.09
2022-07-25T13:54:36.265Z,98672.50
2022-07-25T13:57:04.746Z,98675.34
2022-07-25T13:59:32.513Z,98666.97
2022-07-25T14:02:01.706Z,98666.97
2022-07-25T14:04:30.261Z,98667.66
2022-07-25T14:06:58.334Z,98667.09
2022-07-25T14:09:26.049Z,98665.41
2022-07-25T14:11:53.743Z,98658.16
2022-07-25T14:14:21.459Z,98663.84
2022-07-25T14:16:49.978Z,98667.16
2022-07-25T14:19:19.186Z,98658.19
2022-07-25T14:21:46.920Z,98661.69
2022-07-25T14:24:14.717Z,98664.28
2022-07-25T14:26:42.442Z,98662.00
2022-07-25T14:29:11.253Z,98654.25
2022-07-25T14:31:40.458Z,98654.75
2022-07-25T14:34:08.726Z,98646.78
2022-07-25T14:36:37.792Z,98640.94
2022-07-25T14:39:06.250Z,98649.22
2022-07-25T14:41:34.814Z,98637.94
2022-07-25T14:44:02.685Z,98639.03
2022-07-25T14:46:30.996Z,98616.09
2022-07-25T14:48:59.033Z,98625.66
2022-07-25T14:51:26.866Z,98609.41
2022-07-25T14:53:57.061Z,98607.69
2022-07-25T14:56:29.209Z,98610.50
2022-07-25T14:58:57.218Z,98609.75
2022-07-25T15:01:25.653Z,98612.63
2022-07-25T15:03:56.114Z,98601.53
2022-07-25T15:06:28.757Z,98583.56
2022-07-25T15:08:58.370Z,98591.78
2022-07-25T15:11:26.146Z,98590.72
2022-07-25T15:13:54.039Z,98577.81
2022-07-25T15:16:22.184Z,98587.38
2022-07-25T15:19:14.419Z,98579.03
2022-07-25T15:21:39.603Z,98587.25
2022-07-25T15:24:08.909Z,98578.66
2022-07-25T15:26:37.432Z,98570.72
2022-07-25T15:29:08.216Z,98570.19
2022-07-25T15:31:36.564Z,98562.78
2022-07-25T15:34:04.394Z,98560.72
2022-07-25T15:36:32.142Z,98559.75
2022-07-25T15:38:59.848Z,98561.22
2022-07-25T15:41:29.029Z,98561.19
2022-07-25T15:43:56.740Z,98550.38
2022-07-25T15:46:24.609Z,98567.53
2022-07-25T15:48:52.777Z,98566.44
2022-07-25T15:51:20.646Z,98564.94
2022-07-25T15:53:48.391Z,98553.03
2022-07-25T15:56:16.856Z,98557.59
2022-07-25T15:58:49.157Z,98554.50
2022-07-25T16:01:17.105Z,98553.56
2022-07-25T16:03:45.409Z,98554.13
2022-07-25T16:06:18.666Z,98555.88
2022-07-25T16:08:46.873Z,98550.38
2022-07-25T16:11:14.590Z,98553.38
2022-07-25T16:13:42.521Z,98552.22
2022-07-25T16:16:12.132Z,98551.84
2022-07-25T16:18:39.827Z,98547.63
2022-07-25T16:21:07.936Z,98559.91
2022-07-25T16:23:41.539Z,98552.66
2022-07-25T16:26:14.722Z,98542.22
2022-07-25T16:28:42.461Z,98543.66
2022-07-25T16:31:11.567Z,98551.41
2022-07-25T16:33:39.580Z,98545.00
2022-07-25T16:36:08.026Z,98544.81
2022-07-25T16:38:35.823Z,98544.25
2022-07-25T16:41:03.733Z,98539.81
2022-07-25T16:43:31.451Z,98533.78
2022-07-25T16:45:59.194Z,98539.91
2022-07-25T16:48:28.416Z,98524.88
2022-07-25T16:50:56.627Z,98529.63
2022-07-25T16:53:24.337Z,98515.09
2022-07-25T16:55:52.370Z,98519.53
2022-07-25T16:58:20.126Z,98513.84
2022-07-25T17:00:48.000Z,98500.34
2022-07-25T17:03:16.291Z,98510.66
2022-07-25T17:05:46.905Z,98506.69
2022-07-25T17:08:14.610Z,98500.75
2022-07-25T17:10:42.319Z,98500.38
2022-07-25T17:13:10.041Z,98489.03
2022-07-25T17:15:38.001Z,98501.75
2022-07-25T17:18:06.005Z,98496.72
2022-07-25T17:20:33.719Z,98498.91
2022-07-25T17:23:02.881Z,98489.47
2022-07-25T17:25:30.804Z,98495.34
2022-07-25T17:27:58.966Z,98498.34
2022-07-25T17:30:26.806Z,98489.97
2022-07-25T17:32:54.547Z,98494.91
2022-07-25T17:35:23.870Z,98492.50
2022-07-25T17:37:51.620Z,98488.94
2022-07-25T17:40:21.184Z,98481.00
2022-07-25T17:42:48.915Z,98481.41
2022-07-25T17:45:16.997Z,98479.72
2022-07-25T17:47:45.304Z,98473.13
2022-07-25T17:50:14.063Z,98473.28
2022-07-25T17:52:41.763Z,98475.06
2022-07-25T17:55:12.978Z,98472.75
2022-07-25T17:57:43.379Z,98476.97
2022-07-25T18:00:12.609Z,98468.97
2022-07-25T18:02:40.848Z,98470.56
2022-07-25T18:05:09.566Z,98472.38
2022-07-25T18:07:41.173Z,98467.91
2022-07-25T18:10:09.754Z,98470.88
2022-07-25T18:12:37.774Z,98460.91
2022-07-25T18:15:10.201Z,98460.81
2022-07-25T18:17:37.929Z,98460.84
2022-07-25T18:20:06.078Z,98461.03
2022-07-25T18:22:33.864Z,98460.84
2022-07-25T18:25:01.622Z,98453.78
2022-07-25T18:27:29.499Z,98457.41
2022-07-25T18:29:57.220Z,98446.03
2022-07-25T18:32:26.386Z,98458.28
2022-07-25T18:34:54.115Z,98446.09
2022-07-25T18:37:23.000Z,98444.69
2022-07-25T18:39:50.731Z,98442.88
2022-07-25T18:42:18.523Z,98444.13
2022-07-25T18:44:46.385Z,98443.88
2022-07-25T18:47:15.130Z,98438.69
2022-07-25T18:49:44.340Z,98449.66
2022-07-25T18:52:12.137Z,98449.78
2022-07-25T18:54:39.864Z,98449.41
2022-07-25T18:57:07.650Z,98446.19
2022-07-25T18:59:35.364Z,98449.44
2022-07-25T19:02:03.338Z,98441.81
2022-07-25T19:04:31.137Z,98450.28
2022-07-25T19:07:00.294Z,98449.97
2022-07-25T19:09:28.052Z,98447.63
2022-07-25T19:11:56.570Z,98443.69
2022-07-25T19:14:27.198Z,98441.28
2022-07-25T19:16:55.094Z,98446.16
2022-07-25T19:19:22.809Z,98449.47
2022-07-25T19:21:50.685Z,98441.00
2022-07-25T19:24:19.797Z,98434.22
2022-07-25T19:26:48.245Z,98432.63
2022-07-25T19:29:18.092Z,98442.31
2022-07-25T19:31:45.859Z,98433.47
2022-07-25T19:34:13.539Z,98435.94
2022-07-25T19:36:43.860Z,98421.47
2022-07-25T19:39:12.417Z,98416.66
2022-07-25T19:41:46.301Z,98415.94
2022-07-25T19:44:15.204Z,98419.56
2022-07-25T19:46:42.997Z,98417.22
2022-07-25T19:49:10.852Z,98405.53
2022-07-25T19:51:39.227Z,98412.00
2022-07-25T19:54:08.930Z,98407.16
2022-07-25T19:56:37.053Z,98414.03
2022-07-25T19:59:06.317Z,98420.03
2022-07-25T20:01:35.761Z,98409.63
2022-07-25T20:04:05.442Z,98418.50
2022-07-25T20:06:33.593Z,98416.13
2022-07-25T20:09:04.032Z,98416.09
2022-07-25T20:11:32.474Z,98423.75
2022-07-25T20:14:01.273Z,98419.34
2022-07-25T20:16:30.833Z,98428.97
2022-07-25T20:18:58.579Z,98423.31
2022-07-25T20:21:26.323Z,98410.44
2022-07-25T20:23:54.006Z,98406.81
2022-07-25T20:26:21.770Z,98408.03
2022-07-25T20:28:49.677Z,98406.81
2022-07-25T20:31:22.160Z,98406.81
2022-07-25T20:33:51.815Z,98404.00
2022-07-25T20:36:20.185Z,98402.75
2022-07-25T20:38:47.938Z,98389.50
2022-07-25T20:41:16.281Z,98393.53
2022-07-25T20:43:44.084Z,98394.34
2022-07-25T20:46:11.847Z,98392.34
2022-07-25T20:48:39.600Z,98393.94
2022-07-25T20:51:08.832Z,98389.13
2022-07-25T20:53:36.556Z,98390.34
2022-07-25T20:56:04.496Z,98395.56
2022-07-25T20:58:32.686Z,98400.38
2022-07-25T21:01:00.747Z,98396.38
2022-07-25T21:03:28.543Z,98395.97
2022-07-25T21:05:56.311Z,98403.59
2022-07-25T21:08:25.404Z,98391.53
2022-07-25T21:10:53.809Z,98396.78
2022-07-25T21:13:21.603Z,98413.63
2022-07-25T21:15:49.300Z,98407.19
2022-07-25T21:18:19.296Z,98399.13
2022-07-25T21:20:47.297Z,98416.00
2022-07-25T21:23:15.387Z,98410.75
2022-07-25T21:25:44.567Z,98410.66
2022-07-25T21:28:12.279Z,98410.63
2022-07-25T21:30:41.085Z,98409.41
2022-07-25T21:33:14.195Z,98406.56
2022-07-25T21:35:49.379Z,98411.78
2022-07-25T21:38:27.302Z,98410.97
2022-07-25T21:40:58.703Z,98415.78
2022-07-25T21:43:26.728Z,98417.75
2022-07-25T21:45:54.566Z,98412.53
2022-07-25T21:48:43.365Z,98410.47
2022-07-25T21:51:10.386Z,98414.47
2022-07-25T21:53:47.778Z,98418.06
2022-07-25T21:56:17.023Z,98411.28
2022-07-25T21:58:44.943Z,98420.88
2022-07-25T22:01:12.890Z,98419.66
2022-07-25T22:03:41.409Z,98413.97
2022-07-25T22:06:10.416Z,98411.84
2022-07-25T22:08:39.462Z,98407.06
2022-07-25T22:11:15.812Z,98409.41
2022-07-25T22:13:56.625Z,98407.81
2022-07-25T22:16:24.500Z,98405.31
2022-07-25T22:18:52.268Z,98391.28
2022-07-25T22:21:20.114Z,98397.72
2022-07-25T22:23:47.832Z,98404.91
2022-07-25T22:26:15.608Z,98399.22
2022-07-25T22:28:43.514Z,98394.72
2022-07-25T22:31:13.236Z,98383.41
2022-07-25T22:33:41.251Z,98383.47
2022-07-25T22:36:09.410Z,98386.66
2022-07-25T22:38:37.800Z,98373.38
2022-07-25T22:41:05.744Z,98375.72
2022-07-25T22:43:56.828Z,98361.69
2022-07-25T22:46:22.722Z,98357.16
2022-07-25T22:48:50.665Z,98349.03
2022-07-25T22:51:18.486Z,98346.28
2022-07-25T22:53:46.230Z,98357.53
2022-07-25T22:56:14.052Z,98354.69
2022-07-25T22:58:41.847Z,98344.22
2022-07-25T23:01:10.213Z,98351.41
2022-07-25T23:03:39.621Z,98342.53
2022-07-25T23:06:08.142Z,98337.34
2022-07-25T23:08:35.897Z,98331.41
2022-07-25T23:11:06.212Z,98330.22
2022-07-25T23:13:34.130Z,98319.81
2022-07-25T23:16:03.385Z,98324.63
2022-07-25T23:18:31.562Z,98321.81
2022-07-25T23:21:00.682Z,98324.28
2022-07-25T23:23:28.535Z,98310.69
2022-07-25T23:25:56.354Z,98306.59
2022-07-25T23:28:24.269Z,98306.59
2022-07-25T23:30:52.023Z,98320.63
2022-07-25T23:33:25.304Z,98314.44
2022-07-25T23:35:54.072Z,98319.34
2022-07-25T23:38:23.707Z,98314.91
2022-07-25T23:40:53.992Z,98321.00
2022-07-25T23:43:56.018Z,98310.16
2022-07-25T23:46:09.829Z,98324.91
2022-07-25T23:48:39.453Z,98321.25
2022-07-25T23:51:07.814Z,98311.09
2022-07-25T23:53:37.652Z,98304.69
2022-07-25T23:56:05.941Z,98293.28
2022-07-25T23:58:40.154Z,98294.41
